Time;durP1;ratioP1;P1;durP2;ratioP2;P2;SDS_P1;SDS_P2;PMS_P1;PMS_P2;Temp;Humidity;BMP_temperature;BMP_pressure;BME280_temperature;BME280_humidity;BME280_pressure;Samples;Min_cycle;Max_cycle;Signal;HPM_P1;HPM_P2
2022/10/12 00:56:58;;;;;;;38.20;23.77;;;;;;;13.97;100.00;101067.19;5095576;23;20052;31
2022/10/12 01:11:44;;;;;;;42.45;22.33;;;;;;;14.30;100.00;101065.25;4514356;23;20351;-80
2022/10/12 01:34:36;;;;;;;47.65;26.35;;;;;;;14.10;100.00;101044.50;886223;26;20331;-81
2022/10/12 01:52:42;;;;;;;51.22;29.27;;;;;;;13.99;100.00;101054.53;4995661;23;20063;-80
2022/10/12 02:01:36;;;;;;;37.33;20.50;;;;;;;13.92;100.00;101050.03;5714825;23;20490;-80
2022/10/12 02:21:24;;;;;;;55.05;29.52;;;;;;;13.95;100.00;101036.41;5061013;23;20031;-82
2022/10/12 02:27:35;;;;;;;49.70;28.30;;;;;;;13.91;100.00;101030.59;5000364;23;20051;-77
2022/10/12 02:31:07;;;;;;;51.30;28.08;;;;;;;13.92;100.00;101028.72;4956892;29;20043;-79
2022/10/12 02:40:00;;;;;;;48.97;29.07;;;;;;;13.77;100.00;101023.28;5264275;23;20047;-81
2022/10/12 02:43:35;;;;;;;54.37;29.00;;;;;;;13.71;100.00;101021.31;5022939;23;20363;-81
2022/10/12 04:34:13;;;;;;;61.97;35.08;;;;;;;13.22;100.00;101057.81;4480835;23;20040;-81
2022/10/12 05:19:50;;;;;;;43.67;24.23;;;;;;;13.41;100.00;101085.91;4537876;23;20087;-86
2022/10/12 05:22:15;;;;;;;55.63;29.27;;;;;;;13.51;100.00;101086.59;4938123;29;20031;-86
2022/10/12 05:24:41;;;;;;;52.17;29.52;;;;;;;13.61;100.00;101091.72;4937294;29;20442;-86
2022/10/12 05:27:07;;;;;;;57.53;31.77;;;;;;;13.47;100.00;101087.91;4939488;29;20047;-86
2022/10/12 05:29:32;;;;;;;58.90;30.30;;;;;;;13.61;100.00;101097.06;4939914;29;20038;-87
2022/10/12 05:31:58;;;;;;;60.97;31.05;;;;;;;13.30;100.00;101094.22;4922859;29;20136;-87
2022/10/12 05:34:24;;;;;;;49.67;29.10;;;;;;;13.44;100.00;101090.91;4939139;29;20066;-87
2022/10/12 05:36:49;;;;;;;64.35;30.60;;;;;;;13.33;100.00;101093.88;4947618;29;20497;-85
2022/10/12 05:39:15;;;;;;;51.20;31.45;;;;;;;13.26;100.00;101098.22;4942961;29;20100;-88
2022/10/12 05:41:40;;;;;;;56.70;31.30;;;;;;;13.23;100.00;101106.53;4942292;29;20039;-88
2022/10/12 05:44:06;;;;;;;57.67;32.30;;;;;;;13.12;100.00;101110.38;4939095;29;20055;-87
2022/10/12 05:46:31;;;;;;;55.08;32.03;;;;;;;13.34;100.00;101100.88;4935325;29;20034;-85
2022/10/12 05:48:58;;;;;;;66.35;32.92;;;;;;;13.49;100.00;101101.88;4936579;29;20601;-89
2022/10/12 05:51:24;;;;;;;55.20;30.42;;;;;;;13.58;100.00;101100.91;4938036;29;20516;-87
2022/10/12 05:53:50;;;;;;;62.88;31.20;;;;;;;13.29;100.00;101103.22;4936821;29;20044;-87
2022/10/12 05:56:15;;;;;;;64.47;30.75;;;;;;;13.27;100.00;101100.72;4936867;29;20028;-86
2022/10/12 05:58:41;;;;;;;55.88;31.50;;;;;;;13.30;100.00;101099.56;4935507;29;20111;-86
2022/10/12 06:01:09;;;;;;;57.60;34.10;;;;;;;13.22;100.00;101099.56;4929792;29;20043;-85
2022/10/12 06:03:35;;;;;;;62.58;33.88;;;;;;;13.19;100.00;101111.34;4936574;29;20047;-85
2022/10/12 06:06:05;;;;;;;60.38;32.90;;;;;;;13.40;100.00;101110.88;4936760;29;20035;-85
2022/10/12 06:08:32;;;;;;;60.72;32.72;;;;;;;13.36;100.00;101109.53;4935477;29;20389;-87
2022/10/12 06:10:58;;;;;;;59.38;31.63;;;;;;;13.51;100.00;101112.38;4936969;29;20076;-88
2022/10/12 06:13:24;;;;;;;71.32;34.42;;;;;;;13.42;100.00;101104.38;4931770;29;20040;-84
2022/10/12 06:15:49;;;;;;;61.60;33.70;;;;;;;13.49;100.00;101103.75;4922457;29;20548;-86
2022/10/12 06:18:16;;;;;;;61.80;34.22;;;;;;;13.55;100.00;101109.22;4917381;29;20036;-87
2022/10/12 06:20:51;;;;;;;62.25;32.78;;;;;;;13.71;100.00;101121.69;4917608;29;20398;-90
2022/10/12 06:23:20;;;;;;;62.13;32.50;;;;;;;13.70;100.00;101123.53;4921820;29;20565;-87
2022/10/12 06:25:48;;;;;;;64.40;33.70;;;;;;;13.92;100.00;101120.16;4929923;29;20122;-88
2022/10/12 06:28:15;;;;;;;58.67;31.85;;;;;;;13.95;100.00;101122.47;4925882;29;20079;-89
2022/10/12 06:30:41;;;;;;;65.65;32.17;;;;;;;13.90;100.00;101130.16;4924652;29;20050;-87
2022/10/12 06:33:06;;;;;;;54.00;31.13;;;;;;;14.01;100.00;101125.50;4922807;29;20107;-90
2022/10/12 06:35:32;;;;;;;51.60;31.00;;;;;;;14.14;100.00;101125.78;4925319;29;20027;-87
2022/10/12 06:37:58;;;;;;;53.38;31.92;;;;;;;14.26;100.00;101121.75;4927416;29;20428;-89
2022/10/12 06:40:23;;;;;;;55.88;31.83;;;;;;;14.25;100.00;101123.56;4926945;29;20024;-87
2022/10/12 06:42:50;;;;;;;53.92;32.58;;;;;;;14.18;100.00;101121.78;4927296;29;20079;-85
2022/10/12 06:45:18;;;;;;;58.00;31.75;;;;;;;14.18;100.00;101125.28;4929010;29;20477;-87
2022/10/12 06:47:44;;;;;;;54.03;31.83;;;;;;;14.21;100.00;101126.78;4930640;29;20056;-86
2022/10/12 06:50:10;;;;;;;58.55;32.53;;;;;;;14.45;100.00;101134.72;4925519;29;20436;-87
2022/10/12 06:52:35;;;;;;;54.50;31.67;;;;;;;14.81;100.00;101127.91;4926153;29;20394;-87
2022/10/12 06:55:02;;;;;;;53.58;30.67;;;;;;;14.85;100.00;101136.38;4927883;29;20051;-89
2022/10/12 06:57:27;;;;;;;53.25;31.17;;;;;;;15.18;100.00;101147.72;4928785;29;20187;-89
2022/10/12 06:59:53;;;;;;;51.92;30.83;;;;;;;15.66;100.00;101142.03;4931855;29;20056;-88
2022/10/12 07:02:18;;;;;;;46.03;27.80;;;;;;;15.76;100.00;101147.13;4929346;29;20427;-87
2022/10/12 07:04:49;;;;;;;51.78;30.20;;;;;;;15.72;100.00;101146.66;4930643;29;20111;-87
2022/10/12 07:07:14;;;;;;;57.78;29.77;;;;;;;16.01;100.00;101160.09;4932655;29;20108;-88
2022/10/12 07:09:40;;;;;;;54.17;29.17;;;;;;;15.61;100.00;101149.75;4932984;29;20409;-86
2022/10/12 07:12:05;;;;;;;52.00;29.33;;;;;;;15.70;100.00;101147.88;4938684;29;20042;-87
2022/10/12 07:14:31;;;;;;;49.05;31.52;;;;;;;15.48;100.00;101157.53;4945001;29;20016;-86
2022/10/12 07:16:57;;;;;;;55.63;31.02;;;;;;;15.65;100.00;101151.06;4949521;29;20052;-90
2022/10/12 07:19:22;;;;;;;54.83;32.30;;;;;;;15.81;100.00;101158.94;4930988;29;20510;-86
2022/10/12 07:21:48;;;;;;;49.63;30.05;;;;;;;16.10;100.00;101154.69;4929360;29;20036;-87
2022/10/12 07:24:13;;;;;;;54.97;30.50;;;;;;;16.80;100.00;101161.25;4930135;29;20032;-87
2022/10/12 07:26:41;;;;;;;54.05;31.42;;;;;;;16.52;100.00;101168.25;4931031;29;20044;-89
2022/10/12 07:29:08;;;;;;;54.08;29.92;;;;;;;16.68;100.00;101165.41;4931081;29;20107;-85
2022/10/12 07:31:33;;;;;;;47.05;30.25;;;;;;;16.70;100.00;101167.91;4932369;29;20032;-90
2022/10/12 07:33:59;;;;;;;61.33;33.13;;;;;;;16.84;100.00;101165.22;4937219;29;20042;-89
2022/10/12 07:36:24;;;;;;;58.25;30.58;;;;;;;17.07;100.00;101165.06;4940679;29;20024;-90
2022/10/12 07:38:50;;;;;;;53.47;31.20;;;;;;;17.58;100.00;101173.88;4916820;29;20067;-90
2022/10/12 07:41:16;;;;;;;58.88;31.13;;;;;;;18.10;100.00;101167.34;4919019;29;20040;-90
2022/10/12 07:43:42;;;;;;;48.63;29.70;;;;;;;18.80;100.00;101181.41;4927079;29;20068;-89
2022/10/12 07:46:08;;;;;;;49.28;29.70;;;;;;;18.89;100.00;101179.38;4929937;29;20039;-91
2022/10/12 07:48:34;;;;;;;52.63;29.27;;;;;;;18.39;100.00;101178.69;4916077;29;20486;-89
2022/10/12 07:51:11;;;;;;;56.40;29.38;;;;;;;18.46;100.00;101176.84;4933468;29;20035;-90
2022/10/12 07:53:40;;;;;;;48.33;29.25;;;;;;;18.36;100.00;101176.34;4932285;29;20052;-89
2022/10/12 07:56:13;;;;;;;48.85;29.85;;;;;;;18.21;100.00;101174.81;4928658;29;20529;-86
2022/10/12 07:58:46;;;;;;;49.38;30.73;;;;;;;18.77;100.00;101171.06;4929084;29;21421;-86
2022/10/12 08:01:11;;;;;;;50.85;29.05;;;;;;;19.27;100.00;101172.47;4921934;29;20498;-87
2022/10/12 08:03:37;;;;;;;52.45;29.85;;;;;;;19.90;100.00;101187.28;4924454;29;20122;-90
2022/10/12 08:06:11;;;;;;;54.28;29.42;;;;;;;19.79;100.00;101184.38;4920849;29;20055;-91
2022/10/12 08:08:37;;;;;;;47.25;28.55;;;;;;;19.52;100.00;101180.84;4921612;29;20044;-91
2022/10/12 08:11:06;;;;;;;43.42;27.63;;;;;;;19.99;100.00;101183.34;4921357;29;20375;-86
2022/10/12 08:13:36;;;;;;;50.40;29.75;;;;;;;20.01;100.00;101180.47;4922607;29;20509;-87
2022/10/12 08:16:04;;;;;;;49.38;29.23;;;;;;;19.86;100.00;101183.34;4931064;29;20032;-88
2022/10/12 08:18:31;;;;;;;47.42;29.55;;;;;;;20.13;100.00;101173.41;4930072;29;20127;-88
2022/10/12 08:20:59;;;;;;;53.00;30.92;;;;;;;19.94;100.00;101180.47;4934180;29;20088;-87
2022/10/12 08:23:28;;;;;;;55.92;32.15;;;;;;;20.00;100.00;101176.94;4924096;29;20182;-89
2022/10/12 08:25:56;;;;;;;54.50;30.30;;;;;;;20.00;100.00;101168.88;4921715;29;20162;-89
2022/10/12 08:28:23;;;;;;;51.85;32.38;;;;;;;19.97;100.00;101171.97;4938682;29;20549;-88
2022/10/12 08:30:52;;;;;;;51.28;33.33;;;;;;;19.87;100.00;101168.03;4937905;29;20067;-87
2022/10/12 08:33:18;;;;;;;55.88;32.80;;;;;;;19.69;100.00;101171.31;4929058;29;20043;-88
2022/10/12 08:35:48;;;;;;;49.90;33.78;;;;;;;20.01;100.00;101170.53;4926792;29;20059;-87
2022/10/12 08:38:15;;;;;;;60.83;34.35;;;;;;;20.18;100.00;101175.47;4910859;29;20051;-87
2022/10/12 08:40:49;;;;;;;60.72;35.33;;;;;;;20.46;100.00;101174.22;4928943;29;20044;-86
2022/10/12 08:43:27;;;;;;;62.38;33.38;;;;;;;20.79;100.00;101178.66;4932153;29;20055;-88
2022/10/12 08:45:55;;;;;;;49.65;32.75;;;;;;;20.96;100.00;101177.97;4930083;29;20043;-88
2022/10/12 08:48:27;;;;;;;54.95;33.22;;;;;;;20.97;100.00;101176.94;4932057;29;20064;-88
2022/10/12 08:50:55;;;;;;;50.78;32.47;;;;;;;21.39;100.00;101177.38;4914225;29;20078;-88
2022/10/12 08:53:30;;;;;;;50.67;33.40;;;;;;;21.57;100.00;101178.31;4929021;29;20036;-89
2022/10/12 08:55:55;;;;;;;57.42;33.88;;;;;;;21.18;100.00;101177.72;4913506;29;20056;-88
2022/10/12 08:58:29;;;;;;;49.05;32.50;;;;;;;21.78;100.00;101179.78;4930060;29;20028;-88
2022/10/12 09:01:04;;;;;;;59.95;32.72;;;;;;;21.96;100.00;101166.41;4929355;29;20039;-89
2022/10/12 09:03:32;;;;;;;52.65;32.90;;;;;;;21.27;100.00;101171.84;4929220;29;20063;-90
2022/10/12 09:06:20;;;;;;;56.95;32.25;;;;;;;21.17;100.00;101171.50;4930020;29;20555;-90
2022/10/12 09:09:00;;;;;;;49.58;30.08;;;;;;;21.83;100.00;101181.84;4932993;29;20040;-89
2022/10/12 09:12:02;;;;;;;49.35;30.70;;;;;;;21.36;100.00;101167.84;4932531;29;20051;-89
2022/10/12 09:14:37;;;;;;;51.72;30.05;;;;;;;21.01;100.00;101172.75;4915590;29;20032;-89
2022/10/12 09:17:25;;;;;;;47.78;28.10;;;;;;;20.53;100.00;101175.03;4913041;29;20409;-89
2022/10/12 09:20:01;;;;;;;49.08;27.63;;;;;;;20.50;100.00;101169.22;4910029;29;20051;-88
2022/10/12 09:22:29;;;;;;;49.60;27.38;;;;;;;20.79;100.00;101163.34;4930075;29;20070;-88
2022/10/12 09:24:57;;;;;;;48.60;26.77;;;;;;;20.77;100.00;101164.59;4932579;29;20024;-88
2022/10/12 09:27:22;;;;;;;66.93;33.95;;;;;;;20.56;100.00;101158.44;4915063;29;20040;-88
2022/10/12 09:29:56;;;;;;;58.15;31.45;;;;;;;20.42;100.00;101166.75;4930972;29;20046;-88
2022/10/12 09:32:38;;;;;;;35.58;20.67;;;;;;;20.54;100.00;101165.09;4926280;29;20042;-87
2022/10/12 09:35:06;;;;;;;37.40;20.60;;;;;;;20.86;100.00;101169.53;4921156;29;20372;-89
2022/10/12 09:37:34;;;;;;;41.42;20.92;;;;;;;20.13;100.00;101168.84;4923105;29;20036;-87
2022/10/12 09:40:00;;;;;;;37.53;20.25;;;;;;;20.34;100.00;101169.69;4908711;29;20440;-88
2022/10/12 09:42:26;;;;;;;36.05;19.98;;;;;;;20.82;100.00;101167.47;4923466;29;20538;-89
2022/10/12 09:45:06;;;;;;;32.95;16.88;;;;;;;22.04;93.09;101176.91;4922490;29;20048;-87
2022/10/12 09:47:32;;;;;;;42.28;15.80;;;;;;;22.51;88.38;101169.16;4913675;29;20056;-88
2022/10/12 09:50:06;;;;;;;28.77;15.20;;;;;;;23.15;86.26;101172.16;4921521;29;20032;-90
2022/10/12 09:52:35;;;;;;;31.42;15.57;;;;;;;23.64;81.89;101172.94;4925282;29;20059;-89
2022/10/12 09:55:18;;;;;;;30.88;16.67;;;;;;;24.14;78.13;101176.94;4943652;29;20023;-88
2022/10/12 09:57:53;;;;;;;35.83;16.45;;;;;;;24.36;78.70;101174.44;4956412;29;20032;-88
2022/10/12 10:00:32;;;;;;;40.85;17.35;;;;;;;24.75;75.83;101172.88;4949490;29;20048;-88
2022/10/12 10:03:02;;;;;;;28.50;16.52;;;;;;;24.48;78.98;101174.44;4934178;29;20040;-87
2022/10/12 10:05:36;;;;;;;30.70;18.05;;;;;;;24.98;76.19;101172.81;4919033;29;20028;-87
2022/10/12 10:08:22;;;;;;;35.88;17.67;;;;;;;25.58;73.08;101172.34;4937253;29;20031;-89
2022/10/12 10:11:00;;;;;;;33.60;16.98;;;;;;;24.86;74.35;101184.78;4930288;29;20046;-86
2022/10/12 10:13:34;;;;;;;29.98;15.55;;;;;;;24.94;75.61;101177.06;4934808;29;20032;-89
2022/10/12 10:16:07;;;;;;;27.38;14.70;;;;;;;25.52;71.21;101187.69;4926675;29;20067;-88
2022/10/12 10:18:52;;;;;;;28.08;15.10;;;;;;;25.11;72.48;101193.41;4931599;29;20048;-88
2022/10/12 10:21:38;;;;;;;31.77;16.90;;;;;;;25.35;71.88;101183.28;4931231;29;20051;-89
2022/10/12 10:24:06;;;;;;;35.20;16.65;;;;;;;25.67;69.83;101187.16;4935162;29;20501;-89
2022/10/12 10:27:05;;;;;;;26.00;16.38;;;;;;;25.39;72.53;101179.03;4932422;29;20051;-88
2022/10/12 10:29:33;;;;;;;29.40;16.65;;;;;;;24.31;77.04;101176.22;4934262;29;20068;-89
2022/10/12 10:32:31;;;;;;;27.77;14.93;;;;;;;23.91;77.68;101181.47;4936906;29;21246;-88
2022/10/12 10:35:05;;;;;;;25.85;14.45;;;;;;;23.85;78.95;101172.41;4944243;29;20128;-86
2022/10/12 10:37:34;;;;;;;31.23;16.60;;;;;;;22.78;84.10;101170.56;4935634;29;20043;-87
2022/10/12 10:40:03;;;;;;;32.28;18.08;;;;;;;22.52;87.08;101168.97;4934958;29;20554;-85
2022/10/12 10:42:33;;;;;;;29.80;17.33;;;;;;;22.34;88.90;101157.34;4932582;29;20047;-89
2022/10/12 10:45:07;;;;;;;32.63;18.40;;;;;;;22.06;91.90;101161.34;4922331;29;20450;-88
2022/10/12 10:47:59;;;;;;;36.90;19.52;;;;;;;21.93;94.26;101161.44;4934248;29;20043;-89
2022/10/12 10:50:37;;;;;;;34.65;19.30;;;;;;;21.92;94.52;101159.78;4915598;29;20401;-88
2022/10/12 10:53:18;;;;;;;34.10;19.00;;;;;;;21.68;96.18;101157.88;4935700;29;20048;-86
2022/10/12 10:55:49;;;;;;;31.20;17.75;;;;;;;21.95;94.61;101164.75;4934888;29;20027;-89
2022/10/12 10:58:25;;;;;;;29.17;17.90;;;;;;;21.79;94.23;101156.34;4928057;29;20032;-89
2022/10/12 11:00:57;;;;;;;35.10;17.63;;;;;;;21.62;95.01;101164.16;4921437;29;20501;-88
2022/10/12 11:03:41;;;;;;;28.77;17.27;;;;;;;21.62;94.53;101153.34;4921166;29;20068;-88
2022/10/12 11:06:29;;;;;;;32.92;17.98;;;;;;;21.55;95.44;101153.41;4920355;29;20489;-89
2022/10/12 11:09:05;;;;;;;35.88;18.10;;;;;;;21.39;97.32;101153.09;4925200;29;20068;-87
2022/10/12 11:11:35;;;;;;;35.20;17.90;;;;;;;21.48;97.55;101157.19;4911693;29;20048;-86
2022/10/12 11:14:10;;;;;;;30.95;15.45;;;;;;;21.73;94.19;101160.75;4918799;29;20040;-86
2022/10/12 11:16:41;;;;;;;27.23;16.10;;;;;;;21.71;94.56;101152.03;4917354;29;20044;-88
2022/10/12 11:19:22;;;;;;;31.67;17.45;;;;;;;21.77;94.66;101161.13;4916254;29;20040;-86
2022/10/12 11:21:55;;;;;;;36.63;17.63;;;;;;;21.41;95.04;101159.94;4917063;29;20040;-87
2022/10/12 11:24:39;;;;;;;28.95;15.90;;;;;;;22.00;91.46;101153.28;4921544;29;20035;-86
2022/10/12 11:27:22;;;;;;;39.85;18.48;;;;;;;21.99;92.17;101144.38;4931129;29;20057;-89
2022/10/12 11:30:00;;;;;;;50.15;22.83;;;;;;;22.21;91.64;101142.06;4930565;29;20410;-87
2022/10/12 11:32:33;;;;;;;31.27;16.10;;;;;;;22.17;90.93;101138.97;4925867;29;20091;-89
2022/10/12 11:35:06;;;;;;;29.52;14.50;;;;;;;22.21;89.52;101141.22;4928009;29;20101;-87
2022/10/12 11:37:40;;;;;;;29.92;14.95;;;;;;;22.47;88.09;101130.19;4928677;29;20028;-88
2022/10/12 11:40:25;;;;;;;25.80;12.82;;;;;;;22.21;88.07;101131.25;4931161;29;20064;-89
2022/10/12 11:42:54;;;;;;;25.55;12.77;;;;;;;22.21;88.14;101125.03;4941856;29;20083;-89
2022/10/12 11:45:30;;;;;;;32.00;14.00;;;;;;;22.05;91.20;101126.44;4941537;29;20039;-86
2022/10/12 11:48:13;;;;;;;24.70;12.30;;;;;;;21.84;91.52;101124.94;4941382;29;20166;-85
2022/10/12 11:50:41;;;;;;;;;;;;;;;22.40;85.78;101107.81;4941546;29;20042;-86
2022/10/12 11:53:18;;;;;;;31.73;13.30;;;;;;;22.99;83.68;101116.03;4939491;29;19926;-86
2022/10/12 11:56:06;;;;;;;26.98;14.20;;;;;;;23.78;81.00;101114.00;4924944;29;20044;-86
2022/10/12 11:58:43;;;;;;;24.85;12.88;;;;;;;23.44;82.17;101116.41;4943367;29;20088;-85
2022/10/12 12:01:17;;;;;;;30.27;15.35;;;;;;;22.42;88.88;101105.69;4944012;29;20031;-88
2022/10/12 12:04:01;;;;;;;31.80;15.32;;;;;;;22.25;91.56;101099.25;4924259;29;20040;-86
2022/10/12 12:06:30;;;;;;;28.48;14.13;;;;;;;22.24;90.84;101103.00;4943298;29;20035;-90
2022/10/12 12:09:01;;;;;;;27.40;14.20;;;;;;;22.10;89.83;101103.16;4943642;29;20441;-89
2022/10/12 12:11:33;;;;;;;24.23;12.30;;;;;;;21.72;90.20;101097.03;4945553;29;20076;-86
2022/10/12 12:14:25;;;;;;;25.60;12.95;;;;;;;21.68;90.59;101098.50;4943650;29;20051;-88
2022/10/12 12:17:26;;;;;;;29.38;13.07;;;;;;;21.93;88.62;101102.06;4947877;29;20035;-89
2022/10/12 12:20:00;;;;;;;22.70;11.75;;;;;;;21.89;86.76;101094.59;4940931;29;20394;-87
2022/10/12 12:22:45;;;;;;;28.45;14.00;;;;;;;21.87;87.72;101086.75;4942360;29;20043;-87
2022/10/12 12:25:21;;;;;;;36.78;14.48;;;;;;;21.86;89.06;101087.78;4945606;29;20051;-86
2022/10/12 12:28:04;;;;;;;26.38;14.25;;;;;;;21.75;88.98;101088.50;4943756;29;20434;-88
2022/10/12 12:30:57;;;;;;;27.60;13.30;;;;;;;21.85;87.50;101079.88;4944268;29;20095;-87
2022/10/12 12:33:25;;;;;;;;;;;;;;;21.83;89.10;101080.13;4941231;29;20043;-90
2022/10/12 12:36:08;;;;;;;28.42;14.35;;;;;;;21.92;87.67;101078.81;4942240;29;19919;-88
2022/10/12 12:38:37;;;;;;;33.22;15.60;;;;;;;21.83;88.76;101074.72;4937029;29;20054;-89
2022/10/12 12:41:08;;;;;;;26.95;15.68;;;;;;;22.08;89.48;101083.63;4945753;29;20040;-88
2022/10/12 12:43:34;;;;;;;34.13;17.27;;;;;;;21.39;94.14;101077.59;4953598;29;20083;-89
2022/10/12 12:46:10;;;;;;;34.00;15.68;;;;;;;21.50;94.16;101066.09;4962359;29;20024;-89
2022/10/12 12:48:45;;;;;;;29.05;14.63;;;;;;;21.79;92.81;101062.72;4960075;29;20051;-88
2022/10/12 12:51:17;;;;;;;36.25;14.85;;;;;;;21.89;90.39;101065.78;4939074;29;20099;-87
2022/10/12 12:53:57;;;;;;;26.10;14.27;;;;;;;22.03;87.62;101055.66;4939790;29;20417;-87
2022/10/12 12:56:41;;;;;;;26.23;13.98;;;;;;;21.77;88.29;101058.59;4939744;29;20039;-88
2022/10/12 12:59:38;;;;;;;33.15;14.95;;;;;;;21.85;89.47;101056.44;4943502;29;20040;-89
2022/10/12 13:02:31;;;;;;;23.25;14.90;;;;;;;21.68;90.90;101058.03;4944793;29;20040;-87
2022/10/12 13:05:34;;;;;;;34.42;16.17;;;;;;;21.57;92.97;101054.22;4927733;29;20043;-86
2022/10/12 13:08:42;;;;;;;27.95;15.02;;;;;;;21.58;90.49;101060.41;4943963;29;20090;-90
2022/10/12 13:11:31;;;;;;;26.40;14.55;;;;;;;21.67;89.48;101061.81;4913950;29;20054;-87
2022/10/12 13:14:22;;;;;;;28.15;14.20;;;;;;;21.87;86.88;101053.53;4935694;29;20394;-88
2022/10/12 13:17:22;;;;;;;21.88;11.82;;;;;;;21.95;83.99;101054.06;4944871;29;20032;-88
2022/10/12 13:19:47;;;;;;;23.08;12.75;;;;;;;21.70;85.67;101061.38;4947071;29;20040;-88
2022/10/12 13:22:33;;;;;;;24.10;12.23;;;;;;;21.94;84.53;101054.31;4943470;29;20040;-87
2022/10/12 13:25:06;;;;;;;23.55;12.23;;;;;;;21.95;83.29;101051.38;4931160;29;20065;-86
2022/10/12 13:27:47;;;;;;;22.40;12.68;;;;;;;21.82;83.72;101051.47;4915698;29;20038;-87
2022/10/12 13:30:38;;;;;;;30.10;14.05;;;;;;;21.80;83.85;101040.09;4922039;29;20031;-89
2022/10/12 13:33:33;;;;;;;23.98;11.63;;;;;;;21.81;84.84;101043.63;4936224;29;20039;-89
2022/10/12 13:36:02;;;;;;;26.00;11.90;;;;;;;22.18;83.89;101039.91;4933692;29;20513;-87
2022/10/12 13:38:29;;;;;;;22.92;13.93;;;;;;;22.42;83.87;101035.47;4933355;29;20039;-88
2022/10/12 13:41:10;;;;;;;32.33;15.10;;;;;;;22.24;84.72;101038.19;4934158;29;20047;-91
2022/10/12 13:43:58;;;;;;;24.55;14.15;;;;;;;21.96;85.80;101036.00;4931839;29;20068;-87
2022/10/12 13:46:41;;;;;;;27.83;13.38;;;;;;;22.20;84.17;101037.81;4934421;29;20034;-88
2022/10/12 13:49:20;;;;;;;32.10;13.77;;;;;;;22.05;84.97;101030.09;4930606;29;20048;-86
2022/10/12 13:51:57;;;;;;;20.70;12.50;;;;;;;22.08;84.62;101026.09;4928323;29;20034;-88
2022/10/12 13:54:42;;;;;;;39.28;16.38;;;;;;;21.99;85.77;101025.59;4941214;23;20067;-87
2022/10/12 13:57:27;;;;;;;26.95;15.27;;;;;;;21.66;86.78;101030.47;4929115;29;20071;-88
2022/10/12 14:00:01;;;;;;;28.40;15.00;;;;;;;21.71;86.88;101021.72;4929657;29;20028;-87
2022/10/12 14:02:31;;;;;;;29.70;13.93;;;;;;;21.82;86.59;101013.69;4928759;29;20039;-87
2022/10/12 14:05:04;;;;;;;32.55;15.02;;;;;;;21.93;85.56;101010.31;4932321;29;20016;-89
2022/10/12 14:07:36;;;;;;;25.35;13.10;;;;;;;21.72;85.89;101013.38;4927646;29;20114;-89
2022/10/12 14:10:08;;;;;;;20.58;14.10;;;;;;;21.71;86.19;101010.94;4931372;29;20374;-88
2022/10/12 14:12:37;;;;;;;29.63;14.17;;;;;;;21.67;85.92;101021.34;4929914;29;20044;-87
2022/10/12 14:15:04;;;;;;;30.85;14.95;;;;;;;21.77;84.65;101010.03;4913321;29;20038;-87
2022/10/12 14:17:30;;;;;;;28.23;13.57;;;;;;;21.98;82.65;101007.75;4915179;29;20045;-87
2022/10/12 14:20:18;;;;;;;24.15;13.25;;;;;;;22.08;81.72;101018.84;4911652;29;20032;-89
2022/10/12 17:21:53;;;;;;;27.60;14.93;;;;;;;20.04;100.00;100986.31;4699811;23;20032;-85
2022/10/12 17:28:52;;;;;;;30.67;16.83;;;;;;;19.40;100.00;100986.19;4922751;29;20048;-85
2022/10/12 17:38:24;;;;;;;33.47;16.75;;;;;;;19.17;100.00;101004.59;4564798;27;20060;-84
2022/10/12 17:41:19;;;;;;;33.22;16.83;;;;;;;19.01;100.00;101014.72;4932794;29;20034;-84
2022/10/12 17:50:06;;;;;;;37.83;15.65;;;;;;;18.94;100.00;101030.00;5523380;23;20075;-85
2022/10/12 17:59:25;;;;;;;28.73;13.68;;;;;;;19.18;100.00;101027.75;3900343;27;20056;-86
2022/10/12 18:02:39;;;;;;;19.27;11.07;;;;;;;19.31;100.00;101033.13;4939683;29;20095;-86
2022/10/12 18:11:06;;;;;;;33.75;15.00;;;;;;;19.33;100.00;101031.06;5116185;23;20047;-87
2022/10/12 18:17:28;;;;;;;24.42;13.50;;;;;;;19.08;100.00;101031.69;5373775;23;20067;-87
2022/10/12 18:21:49;;;;;;;34.38;13.68;;;;;;;19.23;100.00;101033.31;4957633;29;20090;-88
2022/10/12 18:25:01;;;;;;;27.58;13.68;;;;;;;19.34;100.00;101030.88;4897685;29;20052;-87
2022/10/12 18:30:48;;;;;;;27.80;14.05;;;;;;;19.18;100.00;101038.50;5015405;23;20032;-89
2022/10/12 18:33:15;;;;;;;34.85;13.43;;;;;;;19.17;100.00;101031.47;4928248;29;20100;-88
2022/10/12 18:35:45;;;;;;;26.05;13.93;;;;;;;19.16;100.00;101029.84;4952053;29;20020;-90
2022/10/12 18:38:10;;;;;;;24.80;12.82;;;;;;;19.24;100.00;101037.69;4942015;29;20035;-88
2022/10/12 18:40:36;;;;;;;25.98;13.77;;;;;;;19.18;100.00;101027.75;4936639;29;20044;-84
2022/10/12 18:43:08;;;;;;;27.42;13.95;;;;;;;19.09;100.00;101027.94;4940543;29;20043;-87
2022/10/12 18:45:40;;;;;;;26.58;14.05;;;;;;;18.90;100.00;101035.97;4941699;29;20524;-88
2022/10/12 18:48:05;;;;;;;33.25;14.55;;;;;;;19.00;100.00;101037.25;4937364;29;20034;-89
2022/10/12 18:50:34;;;;;;;31.23;14.07;;;;;;;18.89;100.00;101032.47;4941472;29;20040;-90
2022/10/12 18:52:59;;;;;;;28.55;14.07;;;;;;;18.88;100.00;101033.50;4931620;29;20039;-87
2022/10/12 18:55:25;;;;;;;29.77;14.00;;;;;;;18.99;100.00;101046.31;4922985;29;20036;-89
2022/10/12 18:57:51;;;;;;;25.83;14.10;;;;;;;18.90;100.00;101042.19;4922413;29;20028;-88
2022/10/12 19:00:16;;;;;;;27.63;13.82;;;;;;;18.91;100.00;101035.78;4917566;29;20495;-88
2022/10/12 19:02:42;;;;;;;25.73;14.20;;;;;;;18.95;100.00;101034.34;4917592;29;20541;-85
2022/10/12 19:05:08;;;;;;;25.55;15.48;;;;;;;18.89;100.00;101045.09;4918685;29;20498;-89
2022/10/12 19:07:34;;;;;;;23.13;13.65;;;;;;;18.92;100.00;101040.13;4916937;29;20051;-86
2022/10/12 19:10:00;;;;;;;36.63;15.82;;;;;;;18.74;100.00;101030.97;4917289;29;20401;-84
2022/10/12 19:12:26;;;;;;;27.85;14.68;;;;;;;18.82;100.00;101039.69;4933333;29;20091;-87
2022/10/12 19:14:52;;;;;;;27.83;13.13;;;;;;;18.85;100.00;101039.28;4921398;29;20036;-87
2022/10/12 19:17:17;;;;;;;23.75;14.02;;;;;;;18.92;100.00;101039.31;4941679;29;20043;-86
2022/10/12 19:19:43;;;;;;;26.98;14.68;;;;;;;18.69;100.00;101034.28;4943745;29;20035;-88
2022/10/12 19:22:09;;;;;;;38.30;15.43;;;;;;;18.46;100.00;101039.16;4933959;29;20496;-86
2022/10/12 19:24:35;;;;;;;26.65;14.50;;;;;;;18.33;100.00;101033.69;4929285;29;20106;-88
2022/10/12 19:27:02;;;;;;;28.60;15.57;;;;;;;18.24;100.00;101030.38;4940084;29;20027;-87
2022/10/12 19:29:28;;;;;;;27.70;14.55;;;;;;;18.27;100.00;101031.81;4931898;29;20044;-88
2022/10/12 19:31:53;;;;;;;29.60;14.30;;;;;;;18.26;100.00;101046.28;4934974;29;20054;-88
2022/10/12 19:34:20;;;;;;;29.95;16.48;;;;;;;18.27;100.00;101037.19;4938830;29;20051;-88
2022/10/12 19:36:47;;;;;;;29.65;14.68;;;;;;;18.06;100.00;101046.19;4934187;29;20051;-88
2022/10/12 19:39:21;;;;;;;31.38;15.30;;;;;;;18.11;100.00;101048.25;4930835;29;20027;-88
2022/10/12 19:41:48;;;;;;;31.02;15.40;;;;;;;18.32;100.00;101042.78;4903211;29;20036;-88
2022/10/12 19:44:18;;;;;;;30.92;15.93;;;;;;;18.32;100.00;101048.16;4931299;29;20063;-90
2022/10/12 19:46:46;;;;;;;36.05;16.00;;;;;;;18.25;100.00;101048.13;4898718;29;20058;-89
2022/10/12 19:49:13;;;;;;;33.40;16.67;;;;;;;18.10;100.00;101055.47;4932075;29;20394;-89
2022/10/12 19:51:39;;;;;;;33.20;16.15;;;;;;;17.91;100.00;101048.13;4932857;29;20040;-87
2022/10/12 19:54:10;;;;;;;34.45;16.08;;;;;;;17.91;100.00;101043.59;4940809;29;20039;-86
2022/10/12 19:56:39;;;;;;;29.98;16.17;;;;;;;17.76;100.00;101040.22;4926815;29;20104;-87
2022/10/12 19:59:05;;;;;;;32.53;16.67;;;;;;;17.75;100.00;101045.75;4939164;29;20063;-86